createdAt,value
2023-01-10T00:00:56.251Z,638.4
2023-01-10T00:01:58.586Z,638.6
2023-01-10T00:03:01.474Z,638.7
2023-01-10T00:04:04.012Z,638.7
2023-01-10T00:05:06.531Z,638.2
2023-01-10T00:06:09.069Z,638.5
2023-01-10T00:07:11.596Z,638.4
2023-01-10T00:08:13.839Z,638.4
2023-01-10T00:09:16.415Z,638.4
2023-01-10T00:10:18.707Z,638.2
2023-01-10T00:11:21.258Z,638.2
2023-01-10T00:12:23.765Z,638.1
2023-01-10T00:13:26.465Z,638.2
2023-01-10T00:14:29.148Z,638.2
2023-01-10T00:15:31.669Z,637.7
2023-01-10T00:16:34.195Z,638.4
2023-01-10T00:17:36.796Z,638.2
2023-01-10T00:18:39.019Z,638.3
2023-01-10T00:19:41.529Z,637.8
2023-01-10T00:20:44.033Z,637.6
2023-01-10T00:21:46.557Z,637.9
2023-01-10T00:22:48.783Z,637.6
2023-01-10T00:23:51.304Z,637.1
2023-01-10T00:24:53.877Z,637.1
2023-01-10T00:25:56.196Z,637.3
2023-01-10T00:26:58.743Z,636.8
2023-01-10T00:28:01.241Z,636.8
2023-01-10T00:29:03.786Z,636.3
2023-01-10T00:30:06.351Z,636.4
2023-01-10T00:31:09.119Z,636.6
2023-01-10T00:32:11.904Z,636.9
2023-01-10T00:33:14.505Z,636.2
2023-01-10T00:34:17.062Z,636.9
2023-01-10T00:35:19.573Z,636.4
2023-01-10T00:36:22.089Z,635
2023-01-10T00:37:24.027Z,635.3
2023-01-10T00:38:26.553Z,635.3
2023-01-10T00:39:29.139Z,634.8
2023-01-10T00:40:31.096Z,634.9
2023-01-10T00:41:33.650Z,634.2
2023-01-10T00:42:36.158Z,633.7
2023-01-10T00:43:38.404Z,634.7
2023-01-10T00:44:40.948Z,633.8
2023-01-10T00:45:42.892Z,634
2023-01-10T00:46:45.103Z,633.6
2023-01-10T00:47:47.323Z,633.7
2023-01-10T00:48:49.917Z,632.7
2023-01-10T00:49:52.433Z,633
2023-01-10T00:50:54.659Z,632.4
2023-01-10T00:51:57.193Z,632.7
2023-01-10T00:52:59.717Z,632
2023-01-10T00:54:01.710Z,631.9
2023-01-10T00:55:04.315Z,631.7
2023-01-10T00:56:06.559Z,631.6
2023-01-10T00:57:09.067Z,631.4
2023-01-10T00:58:11.661Z,630.9
2023-01-10T00:59:14.209Z,631.2
2023-01-10T01:00:16.731Z,631.2
2023-01-10T01:01:20.012Z,631.1
2023-01-10T01:02:23.252Z,630.7
2023-01-10T01:03:25.599Z,630.7
2023-01-10T01:04:28.225Z,630.3
2023-01-10T01:05:30.743Z,629.9
2023-01-10T01:06:32.991Z,630.1
2023-01-10T01:07:35.551Z,630.6
2023-01-10T01:08:37.796Z,629.9
2023-01-10T01:09:40.314Z,630.1
2023-01-10T01:10:42.553Z,630
2023-01-10T01:11:45.077Z,629.8
2023-01-10T01:12:47.606Z,629.9
2023-01-10T01:13:49.874Z,629.3
2023-01-10T01:14:52.377Z,628.8
2023-01-10T01:15:55.207Z,629.3
2023-01-10T01:16:57.728Z,628.9
2023-01-10T01:17:59.983Z,628.6
2023-01-10T01:19:02.519Z,628.5
2023-01-10T01:20:05.224Z,628.4
2023-01-10T01:21:07.488Z,627.7
2023-01-10T01:22:09.687Z,627.6
2023-01-10T01:23:12.248Z,627.2
2023-01-10T01:24:14.768Z,626.9
2023-01-10T01:25:17.276Z,627.1
2023-01-10T01:26:19.487Z,626.8
2023-01-10T01:27:21.731Z,626.4
2023-01-10T01:28:23.940Z,626.6
2023-01-10T01:30:31.180Z,625.8
2023-01-10T01:31:34.112Z,625.8
2023-01-10T01:32:37.200Z,626
2023-01-10T01:33:39.645Z,625.7
2023-01-10T01:34:41.872Z,625.3
2023-01-10T01:35:44.747Z,625.3
2023-01-10T01:36:46.987Z,625.3
2023-01-10T01:37:49.206Z,624.8
2023-01-10T01:38:51.443Z,624.7
2023-01-10T01:39:53.942Z,625
2023-01-10T01:40:56.184Z,624.8
2023-01-10T01:41:58.468Z,624.9
2023-01-10T01:43:00.980Z,624.8
2023-01-10T01:44:03.623Z,624.6
2023-01-10T01:45:05.847Z,624.4
2023-01-10T01:46:08.632Z,624.1
2023-01-10T01:47:11.191Z,624.3
2023-01-10T01:48:13.418Z,623.9
2023-01-10T01:49:15.661Z,624
2023-01-10T01:50:18.157Z,623.4
2023-01-10T01:51:20.790Z,623.4
2023-01-10T01:52:23.298Z,623.3
2023-01-10T01:53:25.535Z,623.2
2023-01-10T01:54:27.774Z,623.1
2023-01-10T01:55:29.746Z,622.8
2023-01-10T01:56:31.990Z,622.4
2023-01-10T01:57:34.473Z,622.4
2023-01-10T01:58:37.011Z,622.8
2023-01-10T01:59:39.517Z,622.5
2023-01-10T02:00:42.011Z,622.5
2023-01-10T02:01:44.944Z,622.6
2023-01-10T02:03:52.911Z,622.5
2023-01-10T02:04:55.459Z,622.3
2023-01-10T02:05:57.999Z,622.2
2023-01-10T02:07:00.622Z,622.1
2023-01-10T02:08:03.268Z,621.9
2023-01-10T02:09:05.504Z,622
2023-01-10T02:10:07.755Z,621.6
2023-01-10T02:11:10.257Z,621.4
2023-01-10T02:12:12.813Z,621.3
2023-01-10T02:13:15.037Z,621.1
2023-01-10T02:14:17.537Z,620.9
2023-01-10T02:15:20.044Z,621.4
2023-01-10T02:16:22.744Z,621.2
2023-01-10T02:17:25.261Z,621.2
2023-01-10T02:18:27.523Z,620.6
2023-01-10T02:19:30.056Z,620.9
2023-01-10T02:20:32.553Z,621.1
2023-01-10T02:21:35.059Z,621.1
2023-01-10T02:22:37.385Z,620.8
2023-01-10T02:23:39.647Z,620.8
2023-01-10T02:24:41.881Z,620.9
2023-01-10T02:25:44.519Z,620.3
2023-01-10T02:26:46.743Z,620.3
2023-01-10T02:27:49.243Z,620.4
2023-01-10T02:28:51.741Z,620
2023-01-10T02:29:54.270Z,620.2
2023-01-10T02:30:57.091Z,620.2
2023-01-10T02:31:59.616Z,620.4
2023-01-10T02:34:06.805Z,619.7
2023-01-10T02:35:09.077Z,619.4
2023-01-10T02:36:11.349Z,618.6
2023-01-10T02:37:13.610Z,618.7
2023-01-10T02:38:16.214Z,618.8
2023-01-10T02:39:18.730Z,618.7
2023-01-10T02:40:21.238Z,618.5
2023-01-10T02:41:23.194Z,618.5
2023-01-10T02:42:25.699Z,617.6
2023-01-10T02:43:28.241Z,618
2023-01-10T02:44:30.470Z,618.2
2023-01-10T02:45:32.704Z,618
2023-01-10T02:46:35.281Z,617.9
2023-01-10T02:47:37.532Z,617.5
2023-01-10T02:48:40.038Z,617.4
2023-01-10T02:49:42.243Z,617.4
2023-01-10T02:50:44.853Z,616.9
2023-01-10T02:51:47.088Z,617.2
2023-01-10T02:52:49.620Z,617
2023-01-10T02:53:52.222Z,617.3
2023-01-10T02:54:54.754Z,617.4
2023-01-10T02:55:57.251Z,616.8
2023-01-10T02:56:59.489Z,616.9
2023-01-10T02:58:01.723Z,617.1
2023-01-10T02:59:03.932Z,616.9
2023-01-10T03:00:06.483Z,616.9
2023-01-10T03:01:09.357Z,616.6
2023-01-10T03:02:12.208Z,616.3
2023-01-10T03:03:14.738Z,616.5
2023-01-10T03:04:16.983Z,616.4
2023-01-10T03:05:19.223Z,616.4
2023-01-10T03:06:21.750Z,616.1
2023-01-10T03:07:24.032Z,616.2
2023-01-10T03:08:26.600Z,616.2
2023-01-10T03:09:29.188Z,615.9
2023-01-10T03:10:31.697Z,615.8
2023-01-10T03:11:34.204Z,616.2
2023-01-10T03:12:36.702Z,616.1
2023-01-10T03:13:39.253Z,615.5
2023-01-10T03:14:41.759Z,615.5
2023-01-10T03:15:43.974Z,615.5
2023-01-10T03:16:46.480Z,614.9
2023-01-10T03:17:48.964Z,614.7
2023-01-10T03:18:51.446Z,615.2
2023-01-10T03:19:53.730Z,613.9
2023-01-10T03:20:55.985Z,614.2
2023-01-10T03:21:58.540Z,614.1
2023-01-10T03:23:01.045Z,614.4
2023-01-10T03:24:03.285Z,614.8
2023-01-10T03:25:06.050Z,614.7
2023-01-10T03:26:08.580Z,613.9
2023-01-10T03:27:11.065Z,613.7
2023-01-10T03:28:13.592Z,613.4
2023-01-10T03:29:16.080Z,613.2
2023-01-10T03:30:18.309Z,612.4
2023-01-10T03:31:20.811Z,612.3
2023-01-10T03:32:23.358Z,612.2
2023-01-10T03:33:25.907Z,612.1
2023-01-10T03:34:28.424Z,611.6
2023-01-10T03:35:30.625Z,611.8
2023-01-10T03:36:33.163Z,611.7
2023-01-10T03:37:35.427Z,611.7
2023-01-10T03:38:37.669Z,611.4
2023-01-10T03:39:40.161Z,611.2
2023-01-10T03:40:42.910Z,610.6
2023-01-10T03:41:45.403Z,610.4
2023-01-10T03:42:47.922Z,610.7
2023-01-10T03:43:50.159Z,610.4
2023-01-10T03:44:52.399Z,609.7
2023-01-10T03:45:54.916Z,609.3
2023-01-10T03:46:57.587Z,609.1
2023-01-10T03:48:00.137Z,609.3
2023-01-10T03:49:02.644Z,608.3
2023-01-10T03:50:04.611Z,608.8
2023-01-10T03:51:07.135Z,608.2
2023-01-10T03:52:09.652Z,608.6
2023-01-10T03:53:12.163Z,608.5
2023-01-10T03:54:14.662Z,608.4
2023-01-10T03:55:17.156Z,608.6
2023-01-10T03:56:19.452Z,608.8
2023-01-10T03:57:21.996Z,608.5
2023-01-10T03:58:24.512Z,608
2023-01-10T03:59:26.464Z,607.5
2023-01-10T04:00:29.000Z,607.2
2023-01-10T04:01:32.177Z,607.1
2023-01-10T04:02:34.766Z,606.8
2023-01-10T04:03:37.019Z,606.7
2023-01-10T04:04:39.552Z,606.9
2023-01-10T04:05:42.072Z,606.5
2023-01-10T04:06:44.011Z,606.4
2023-01-10T04:07:46.567Z,606.2
2023-01-10T04:08:48.785Z,606.3
2023-01-10T04:09:51.309Z,605.9
2023-01-10T04:10:53.808Z,605.7
2023-01-10T04:11:56.157Z,605.6
2023-01-10T04:12:58.688Z,605.6
2023-01-10T04:14:00.924Z,605.7
2023-01-10T04:15:03.497Z,605
2023-01-10T04:16:05.950Z,605.2
2023-01-10T04:17:08.218Z,605.3
2023-01-10T04:18:10.490Z,605.4
2023-01-10T04:19:13.010Z,605
2023-01-10T04:20:15.528Z,604.9
2023-01-10T04:21:17.478Z,604.3
2023-01-10T04:22:20.004Z,604.3
2023-01-10T04:23:22.507Z,603.9
2023-01-10T04:24:25.020Z,603.4
2023-01-10T04:25:27.561Z,603.3
2023-01-10T04:26:29.804Z,603
2023-01-10T04:27:32.426Z,602.7
2023-01-10T04:28:34.757Z,602.8
2023-01-10T04:29:37.299Z,602.5
2023-01-10T04:30:39.799Z,602.2
2023-01-10T04:31:42.867Z,601.8
2023-01-10T04:32:45.397Z,601.6
2023-01-10T04:33:47.892Z,601.4
2023-01-10T04:34:49.888Z,601.3
2023-01-10T04:35:52.432Z,601.8
2023-01-10T04:36:54.993Z,601.2
2023-01-10T04:37:57.208Z,601.2
2023-01-10T04:38:59.420Z,601
2023-01-10T04:40:01.958Z,600.6
2023-01-10T04:41:04.197Z,600.9
2023-01-10T04:42:06.747Z,601.1
2023-01-10T04:43:09.355Z,600.7
2023-01-10T04:44:11.890Z,600.5
2023-01-10T04:45:13.873Z,600.1
2023-01-10T04:46:16.386Z,600.5
2023-01-10T04:47:18.889Z,600.2
2023-01-10T04:48:21.448Z,600.3
2023-01-10T04:49:23.714Z,599.8
2023-01-10T04:50:26.220Z,600.1
2023-01-10T04:51:28.753Z,599.3
2023-01-10T04:52:31.006Z,599.2
2023-01-10T04:53:33.507Z,598.9
2023-01-10T04:54:35.758Z,599.1
2023-01-10T04:55:37.979Z,599
2023-01-10T04:56:40.539Z,598.6
2023-01-10T04:57:42.763Z,598.1
2023-01-10T04:58:45.391Z,598.6
2023-01-10T04:59:47.617Z,598.2
2023-01-10T05:00:50.177Z,598
2023-01-10T05:01:53.485Z,597.8
2023-01-10T05:02:56.953Z,597.6
2023-01-10T05:03:59.570Z,597.5
2023-01-10T05:05:02.117Z,597.4
2023-01-10T05:06:04.631Z,597.2
2023-01-10T05:07:06.867Z,597.4
2023-01-10T05:08:09.106Z,597.1
2023-01-10T05:09:11.598Z,596.8
2023-01-10T05:10:13.840Z,596.7
2023-01-10T05:11:16.395Z,596.4
2023-01-10T05:12:18.945Z,596.3
2023-01-10T05:13:21.168Z,596.8
2023-01-10T05:14:23.795Z,596.3
2023-01-10T05:15:26.315Z,596.1
2023-01-10T05:16:28.845Z,595.6
2023-01-10T05:17:31.078Z,595.7
2023-01-10T05:18:33.602Z,595.3
2023-01-10T05:19:36.128Z,594.9
2023-01-10T05:20:38.646Z,594.7
2023-01-10T05:21:41.195Z,594.5
2023-01-10T05:22:43.703Z,594.1
2023-01-10T05:23:46.213Z,593.9
2023-01-10T05:24:48.758Z,593.7
2023-01-10T05:25:50.992Z,593.2
2023-01-10T05:26:53.272Z,593.5
2023-01-10T05:27:55.784Z,593.3
2023-01-10T05:28:58.286Z,593
2023-01-10T05:30:00.622Z,593.6
2023-01-10T05:31:03.149Z,593.3
2023-01-10T05:32:05.410Z,592.8
2023-01-10T05:33:08.019Z,592.7
2023-01-10T05:34:09.700Z,592.6
2023-01-10T05:35:12.198Z,592.5
2023-01-10T05:36:14.691Z,592
2023-01-10T05:37:17.197Z,592.4
2023-01-10T05:38:19.703Z,592.4
2023-01-10T05:39:21.949Z,591.9
2023-01-10T05:40:24.447Z,592.1
2023-01-10T05:41:26.698Z,592
2023-01-10T05:42:29.275Z,591.5
2023-01-10T05:43:31.529Z,591.2
2023-01-10T05:44:34.057Z,591.3
2023-01-10T05:45:36.941Z,591.1
2023-01-10T05:46:39.487Z,591.2
2023-01-10T05:47:41.762Z,591.4
2023-01-10T05:48:44.265Z,591
2023-01-10T05:49:46.786Z,590.6
2023-01-10T05:50:49.290Z,590.5
2023-01-10T05:51:51.239Z,590.4
2023-01-10T05:52:53.737Z,590.6
2023-01-10T05:53:55.966Z,590.4
2023-01-10T05:54:58.186Z,590
2023-01-10T05:56:00.673Z,590
2023-01-10T05:57:03.233Z,589.4
2023-01-10T05:58:05.513Z,588.6
2023-01-10T06:00:13.013Z,588.5
2023-01-10T06:01:15.893Z,588.1
2023-01-10T06:02:18.571Z,588
2023-01-10T06:03:21.535Z,588.3
2023-01-10T06:04:24.085Z,588.3
2023-01-10T06:05:26.609Z,587.8
2023-01-10T06:06:29.122Z,587.4
2023-01-10T06:07:31.619Z,587.1
2023-01-10T06:08:33.552Z,586.8
2023-01-10T06:09:36.125Z,586.3
2023-01-10T06:10:40.181Z,586.2
2023-01-10T06:11:42.948Z,586
2023-01-10T06:12:45.465Z,585.8
2023-01-10T06:13:47.714Z,586.1
2023-01-10T06:14:50.258Z,586.2
2023-01-10T06:15:52.498Z,586
2023-01-10T06:16:55.143Z,585.1
2023-01-10T06:17:57.092Z,585.8
2023-01-10T06:18:59.369Z,585.1
2023-01-10T06:20:01.875Z,585
2023-01-10T06:21:04.122Z,584.4
2023-01-10T06:22:06.636Z,584.4
2023-01-10T06:23:08.082Z,584
2023-01-10T06:24:10.585Z,583.6
2023-01-10T06:25:12.620Z,583
2023-01-10T06:26:14.853Z,583.5
2023-01-10T06:27:17.517Z,583.5
2023-01-10T06:28:19.742Z,583.2
2023-01-10T06:29:22.009Z,582.5
2023-01-10T06:30:24.539Z,583.5
2023-01-10T06:31:27.413Z,583.1
2023-01-10T06:32:30.157Z,582.9
2023-01-10T06:33:32.408Z,582.8
2023-01-10T06:34:34.627Z,582.2
2023-01-10T06:35:37.142Z,582.4
2023-01-10T06:36:39.073Z,581.7
2023-01-10T06:37:41.624Z,581.9
2023-01-10T06:38:43.867Z,581.5
2023-01-10T06:39:46.392Z,581
2023-01-10T06:40:48.940Z,580.9
2023-01-10T06:41:50.958Z,580.3
2023-01-10T06:42:53.500Z,580.6
2023-01-10T06:43:55.787Z,580.4
2023-01-10T06:44:58.062Z,580.2
2023-01-10T06:46:00.839Z,579.9
2023-01-10T06:47:03.097Z,579.6
2023-01-10T06:48:05.689Z,579.2
2023-01-10T06:49:08.202Z,580
2023-01-10T06:50:10.437Z,579.5
2023-01-10T06:51:12.675Z,578.9
2023-01-10T06:52:15.201Z,578.6
2023-01-10T06:53:17.431Z,578.4
2023-01-10T06:54:19.676Z,577.5
2023-01-10T06:55:22.177Z,577.7
2023-01-10T06:56:24.427Z,577.7
2023-01-10T06:57:26.960Z,576.7
2023-01-10T06:58:29.184Z,576.3
2023-01-10T06:59:31.698Z,576.5
2023-01-10T07:00:34.269Z,576.6
2023-01-10T07:01:37.648Z,576.3
2023-01-10T07:02:40.218Z,575.9
2023-01-10T07:03:43.007Z,575.3
2023-01-10T07:04:45.561Z,575.6
2023-01-10T07:05:48.082Z,575.1
2023-01-10T07:06:50.311Z,574.5
2023-01-10T07:07:52.530Z,575
2023-01-10T07:08:55.025Z,575.2
2023-01-10T07:09:57.559Z,574.9
2023-01-10T07:11:00.069Z,574.3
2023-01-10T07:12:02.614Z,574.1
2023-01-10T07:13:04.850Z,573.2
2023-01-10T07:14:07.138Z,572.8
2023-01-10T07:15:09.095Z,572.5
2023-01-10T07:16:11.566Z,572.3
2023-01-10T07:17:14.129Z,571.5
2023-01-10T07:18:16.366Z,571.6
2023-01-10T07:19:18.960Z,571
2023-01-10T07:20:21.524Z,570.7
2023-01-10T07:21:24.026Z,570.3
2023-01-10T07:22:26.543Z,570.7
2023-01-10T07:23:28.766Z,570.1
2023-01-10T07:24:31.264Z,570
2023-01-10T07:25:33.761Z,570.1
2023-01-10T07:26:36.356Z,570.1
2023-01-10T07:27:38.650Z,570.1
2023-01-10T07:28:41.200Z,569.6
2023-01-10T07:29:43.714Z,569.6
2023-01-10T07:30:46.253Z,569.6
2023-01-10T07:31:48.524Z,569.1
2023-01-10T07:32:51.045Z,568.7
2023-01-10T07:33:53.617Z,568.2
2023-01-10T07:34:56.275Z,568.1
2023-01-10T07:35:58.826Z,568
2023-01-10T07:37:01.346Z,567.6
2023-01-10T07:38:03.577Z,567.1
2023-01-10T07:39:05.502Z,567.3
2023-01-10T07:40:08.013Z,567
2023-01-10T07:41:10.558Z,566.6
2023-01-10T07:42:13.089Z,566.6
2023-01-10T07:43:15.351Z,565.9
2023-01-10T07:44:17.863Z,565.8
2023-01-10T07:45:20.129Z,565.6
2023-01-10T07:46:22.826Z,565.6
2023-01-10T07:47:25.165Z,565.5
2023-01-10T07:48:27.692Z,565.4
2023-01-10T07:49:30.216Z,565.1
2023-01-10T07:50:32.835Z,565.1
2023-01-10T07:51:35.368Z,564.7
2023-01-10T07:52:37.599Z,564.4
2023-01-10T07:53:40.104Z,564
2023-01-10T07:54:42.373Z,564
2023-01-10T07:55:44.881Z,564
2023-01-10T07:56:47.394Z,563.3
2023-01-10T07:57:49.623Z,563.4
2023-01-10T07:58:51.859Z,563.3
2023-01-10T07:59:54.412Z,563.2
2023-01-10T08:00:57.201Z,563.1
2023-01-10T08:01:59.456Z,563.3
2023-01-10T08:03:03.020Z,562.7
2023-01-10T08:04:05.318Z,562.5
2023-01-10T08:05:07.591Z,562.6
2023-01-10T08:06:10.226Z,562.3
2023-01-10T08:07:12.478Z,562.4
2023-01-10T08:08:14.706Z,562.2
2023-01-10T08:09:16.669Z,562.5
2023-01-10T08:10:18.932Z,561.7
2023-01-10T08:11:20.913Z,561.1
2023-01-10T08:12:22.914Z,561.9
2023-01-10T08:13:25.193Z,562
2023-01-10T08:14:28.096Z,561.1
2023-01-10T08:15:30.644Z,560.5
2023-01-10T08:16:33.154Z,560.5
2023-01-10T08:17:34.860Z,560.6
2023-01-10T08:18:37.478Z,559.8
2023-01-10T08:19:39.715Z,559.6
2023-01-10T08:20:41.960Z,559.7
2023-01-10T08:21:44.571Z,559.8
2023-01-10T08:22:47.103Z,559.8
2023-01-10T08:23:49.324Z,559.4
2023-01-10T08:24:51.861Z,559.2
2023-01-10T08:25:54.382Z,559.2
2023-01-10T08:26:56.893Z,559.2
2023-01-10T08:27:59.422Z,558.2
2023-01-10T08:29:01.939Z,558.1
2023-01-10T08:30:03.928Z,558
2023-01-10T08:31:06.503Z,557
2023-01-10T08:32:08.783Z,557.1
2023-01-10T08:33:11.340Z,557.3
2023-01-10T08:34:13.604Z,556.6
2023-01-10T08:35:16.130Z,557
2023-01-10T08:36:18.362Z,556.7
2023-01-10T08:37:21.019Z,556
2023-01-10T08:38:22.993Z,556.5
2023-01-10T08:39:25.230Z,555.8
2023-01-10T08:40:27.479Z,555.6
2023-01-10T08:41:29.742Z,555.2
2023-01-10T08:42:31.968Z,555.3
2023-01-10T08:43:34.244Z,554.8
2023-01-10T08:44:36.490Z,555
2023-01-10T08:45:39.244Z,555
2023-01-10T08:46:42.172Z,555
2023-01-10T08:47:44.488Z,554.9
2023-01-10T08:48:46.450Z,554.8
2023-01-10T08:49:48.735Z,554.8
2023-01-10T08:50:51.263Z,553.7
2023-01-10T08:51:53.784Z,554.3
2023-01-10T08:52:56.725Z,554.1
2023-01-10T08:53:59.259Z,553.1
2023-01-10T08:55:01.553Z,553.5
2023-01-10T08:57:09.068Z,553.3
2023-01-10T08:58:11.603Z,553.5
2023-01-10T08:59:14.135Z,553.1
2023-01-10T09:00:16.461Z,553
2023-01-10T09:01:19.475Z,552.8
2023-01-10T09:02:22.402Z,552.9
2023-01-10T09:03:24.787Z,552.8
2023-01-10T09:04:27.019Z,552.6
2023-01-10T09:05:30.601Z,552
2023-01-10T09:06:33.180Z,552.1
2023-01-10T09:07:35.720Z,552.4
2023-01-10T09:08:38.333Z,552.2
2023-01-10T09:09:40.869Z,551.9
2023-01-10T09:10:43.390Z,551.8
2023-01-10T09:11:46.065Z,551.6
2023-01-10T09:12:48.591Z,551.2
2023-01-10T09:13:50.839Z,551
2023-01-10T09:14:53.096Z,551.4
2023-01-10T09:15:55.066Z,551.1
2023-01-10T09:16:57.666Z,551.7
2023-01-10T09:17:59.635Z,551
2023-01-10T09:19:02.168Z,551.5
2023-01-10T09:20:05.718Z,550.7
2023-01-10T09:21:07.996Z,551.2
2023-01-10T09:22:10.577Z,550.5
2023-01-10T09:23:12.857Z,550.8
2023-01-10T09:24:15.243Z,551
2023-01-10T09:25:16.936Z,551.5
2023-01-10T09:26:19.177Z,550.8
2023-01-10T09:27:21.423Z,550.8
2023-01-10T09:28:23.669Z,550.2
2023-01-10T09:29:25.666Z,550.1
2023-01-10T09:30:27.670Z,550.5
2023-01-10T09:31:30.317Z,550.4
2023-01-10T09:32:32.866Z,550.1
2023-01-10T09:34:40.105Z,550
2023-01-10T09:35:42.063Z,549.8
2023-01-10T09:36:44.323Z,549.5
2023-01-10T09:37:46.293Z,549.4
2023-01-10T09:38:48.526Z,549.2
2023-01-10T09:39:51.143Z,549.2
2023-01-10T09:40:53.403Z,548.5
2023-01-10T09:41:55.117Z,548.7
2023-01-10T09:42:57.680Z,548.8
2023-01-10T09:45:05.208Z,548.6
2023-01-10T09:46:07.729Z,548.3
2023-01-10T09:48:15.238Z,548.6
2023-01-10T09:49:17.505Z,548.4
2023-01-10T09:50:19.781Z,548.6
2023-01-10T09:51:22.366Z,548.3
2023-01-10T09:52:24.316Z,548.8
2023-01-10T09:53:26.860Z,548.6
2023-01-10T09:54:29.123Z,548
2023-01-10T09:56:36.167Z,548.1
2023-01-10T09:57:38.759Z,548
2023-01-10T09:58:41.291Z,547.6
2023-01-10T09:59:43.849Z,547.7
2023-01-10T10:00:46.460Z,547.5
2023-01-10T10:01:48.789Z,547.6
2023-01-10T10:02:51.108Z,547.6
2023-01-10T10:03:54.733Z,547.2
2023-01-10T10:04:57.061Z,546.9
2023-01-10T10:07:04.282Z,547.2
2023-01-10T10:08:06.640Z,546.9
2023-01-10T10:09:08.643Z,547.4
2023-01-10T10:10:10.879Z,547.2
2023-01-10T10:11:12.885Z,547
2023-01-10T10:12:15.476Z,546.6
2023-01-10T10:14:22.719Z,546.3
2023-01-10T10:15:25.482Z,546.9
2023-01-10T10:16:27.509Z,546.4
2023-01-10T10:17:30.072Z,546.6
2023-01-10T10:18:32.670Z,546.3
2023-01-10T10:19:34.927Z,546.6
2023-01-10T10:20:37.216Z,547
2023-01-10T10:21:39.464Z,547.5
2023-01-10T10:22:41.985Z,547.1
2023-01-10T10:23:44.293Z,547.2
2023-01-10T10:24:46.816Z,547.2
2023-01-10T10:25:49.111Z,548.2
2023-01-10T10:26:51.063Z,548
2023-01-10T10:27:53.640Z,547.8
2023-01-10T10:28:57.472Z,547.9
2023-01-10T10:29:59.735Z,547.1
2023-01-10T10:31:02.268Z,547.4
2023-01-10T10:32:04.536Z,547
2023-01-10T10:33:07.054Z,547.9
2023-01-10T10:34:09.615Z,547.7
2023-01-10T10:35:11.297Z,548.2
2023-01-10T10:36:13.564Z,548.2
2023-01-10T10:37:16.115Z,548.8
2023-01-10T10:38:18.373Z,548.5
2023-01-10T10:39:20.642Z,548.5
2023-01-10T10:40:23.209Z,549
2023-01-10T10:41:25.791Z,549.4
2023-01-10T10:42:28.047Z,549.4
2023-01-10T10:43:30.077Z,548.9
2023-01-10T10:44:32.619Z,549.7
2023-01-10T10:45:35.435Z,549
2023-01-10T10:46:37.987Z,549.2
2023-01-10T10:47:40.250Z,549.1
2023-01-10T10:48:42.752Z,549.3
2023-01-10T10:49:45.258Z,549
2023-01-10T10:50:47.477Z,549.4
2023-01-10T10:51:49.728Z,549.5
2023-01-10T10:52:52.284Z,549.2
2023-01-10T10:53:54.857Z,549.2
2023-01-10T10:54:57.308Z,548.7
2023-01-10T10:56:00.236Z,548.8
2023-01-10T10:57:02.789Z,548.3
2023-01-10T10:58:05.111Z,548.1
2023-01-10T10:59:07.692Z,547.9
2023-01-10T11:00:09.959Z,547.5
2023-01-10T11:01:12.630Z,547.2
2023-01-10T11:02:15.468Z,547.2
2023-01-10T11:03:17.739Z,547.6
2023-01-10T11:04:20.284Z,547.5
2023-01-10T11:05:23.179Z,547.8
2023-01-10T11:06:25.735Z,547.4
2023-01-10T11:07:28.287Z,547.4
2023-01-10T11:08:30.838Z,546.9
2023-01-10T11:09:33.059Z,546.5
2023-01-10T11:10:35.575Z,546.4
2023-01-10T11:11:38.112Z,546.6
2023-01-10T11:12:40.636Z,546.7
2023-01-10T11:13:43.220Z,546.2
2023-01-10T11:14:45.843Z,547
2023-01-10T11:15:48.096Z,546
2023-01-10T11:16:50.880Z,545.8
2023-01-10T11:17:52.856Z,546.1
2023-01-10T11:18:54.817Z,546
2023-01-10T11:19:56.794Z,546.3
2023-01-10T11:20:59.081Z,546.1
2023-01-10T11:22:01.350Z,546.9
2023-01-10T11:23:03.604Z,546.4
2023-01-10T11:24:06.155Z,546.5
2023-01-10T11:25:08.672Z,546.9
2023-01-10T11:26:10.957Z,547.5
2023-01-10T11:27:13.214Z,547
2023-01-10T11:28:15.459Z,547.2
2023-01-10T11:29:17.998Z,547.1
2023-01-10T11:30:20.615Z,546.9
2023-01-10T11:31:23.410Z,547
2023-01-10T11:32:25.938Z,547
2023-01-10T11:33:28.177Z,546.8
2023-01-10T11:34:30.736Z,546.7
2023-01-10T11:35:33.307Z,546.5
2023-01-10T11:36:35.565Z,546.7
2023-01-10T11:37:38.115Z,546.8
2023-01-10T11:38:40.673Z,547.1
2023-01-10T11:39:43.187Z,546.4
2023-01-10T11:40:45.464Z,546.5
2023-01-10T11:41:48.081Z,546
2023-01-10T11:42:50.604Z,546.4
2023-01-10T11:43:53.104Z,546.4
2023-01-10T11:44:55.650Z,546.6
2023-01-10T11:45:58.329Z,546.8
2023-01-10T11:47:00.894Z,547.5
2023-01-10T11:48:02.645Z,546.9
2023-01-10T11:50:09.867Z,546.8
2023-01-10T11:51:12.439Z,547.1
2023-01-10T11:52:14.959Z,546.6
2023-01-10T11:53:17.212Z,546.3
2023-01-10T11:54:19.751Z,546.2
2023-01-10T11:55:22.103Z,545.8
2023-01-10T11:56:24.077Z,545.4
2023-01-10T11:57:26.673Z,546.4
2023-01-10T11:58:28.875Z,545.4
2023-01-10T11:59:31.393Z,546.6
2023-01-10T12:00:33.934Z,546.4
2023-01-10T12:01:36.989Z,547
2023-01-10T12:02:39.908Z,546.6
2023-01-10T12:03:42.482Z,546.7
2023-01-10T12:04:45.014Z,547
2023-01-10T12:05:47.258Z,547.2
2023-01-10T12:06:49.761Z,546.4
2023-01-10T12:07:52.276Z,546.6
2023-01-10T12:08:54.808Z,546.3
2023-01-10T12:09:57.074Z,546.9
2023-01-10T12:10:59.608Z,547.2
2023-01-10T12:12:01.919Z,547.4
2023-01-10T12:13:03.913Z,547.1
2023-01-10T12:14:06.433Z,547.5
2023-01-10T12:15:08.666Z,547.5
2023-01-10T12:16:11.190Z,547.4
2023-01-10T12:17:14.329Z,547.2
2023-01-10T12:18:16.858Z,546.9
2023-01-10T12:19:19.123Z,547.1
2023-01-10T12:20:20.828Z,547.2
2023-01-10T12:21:23.078Z,546.9
2023-01-10T12:22:25.594Z,547.4
2023-01-10T12:23:27.874Z,547.5
2023-01-10T12:24:30.166Z,547.5
2023-01-10T12:25:31.862Z,547.8
2023-01-10T12:26:34.098Z,548.1
2023-01-10T12:27:36.668Z,548.1
2023-01-10T12:28:39.230Z,548.1
2023-01-10T12:29:41.451Z,547.7
2023-01-10T12:30:44.302Z,547.2
2023-01-10T12:31:46.862Z,547.3
2023-01-10T12:32:49.473Z,547.5
2023-01-10T12:33:52.067Z,547.4
2023-01-10T12:34:55.187Z,547
2023-01-10T12:35:58.105Z,546.6
2023-01-10T12:37:00.620Z,546.2
2023-01-10T12:38:02.621Z,546.3
2023-01-10T12:39:04.639Z,546.1
2023-01-10T12:40:07.248Z,546.3
2023-01-10T12:41:09.788Z,545.8
2023-01-10T12:42:12.360Z,545.5
2023-01-10T12:43:14.613Z,545.6
2023-01-10T12:44:17.208Z,545.6
2023-01-10T12:45:19.793Z,545.7
2023-01-10T12:47:27.704Z,545.4
2023-01-10T12:48:30.079Z,544.9
2023-01-10T12:49:32.089Z,545.8
2023-01-10T12:50:34.466Z,545.8
2023-01-10T12:51:36.980Z,545.8
2023-01-10T12:52:38.929Z,545.5
2023-01-10T12:53:41.689Z,545.8
2023-01-10T12:54:44.471Z,545.9
2023-01-10T12:55:47.696Z,546
2023-01-10T12:56:50.430Z,546
2023-01-10T12:57:54.465Z,545.2
2023-01-10T12:58:56.451Z,545.7
2023-01-10T12:59:58.982Z,545.6
2023-01-10T13:01:02.344Z,545.6
2023-01-10T13:02:05.599Z,545.5
2023-01-10T13:03:08.313Z,545.4
2023-01-10T13:04:10.644Z,545.1
2023-01-10T13:05:13.355Z,545.5
2023-01-10T13:06:15.931Z,545.4
2023-01-10T13:07:18.211Z,545.3
2023-01-10T13:08:20.204Z,545.7
2023-01-10T13:09:22.459Z,545.8
2023-01-10T13:10:24.454Z,545.4
2023-01-10T13:11:26.713Z,545.4
2023-01-10T13:12:29.219Z,545.3
2023-01-10T13:13:31.184Z,545.5
2023-01-10T13:14:33.420Z,545.2
2023-01-10T13:15:35.881Z,545.6
2023-01-10T13:16:38.193Z,545.6
2023-01-10T13:17:40.467Z,545.7
2023-01-10T13:18:42.727Z,545.9
2023-01-10T13:19:45.321Z,545.9
2023-01-10T13:20:47.927Z,546
2023-01-10T13:21:50.480Z,545.8
2023-01-10T13:22:52.711Z,545.8
2023-01-10T13:23:54.974Z,545.6
2023-01-10T13:24:57.207Z,545.7
2023-01-10T13:25:59.780Z,545.6
2023-01-10T13:27:01.764Z,546.2
2023-01-10T13:28:04.291Z,545.8
2023-01-10T13:29:06.821Z,546.1
2023-01-10T13:30:09.346Z,546.1
2023-01-10T13:31:11.951Z,546
2023-01-10T13:32:14.356Z,545.6
2023-01-10T13:33:17.017Z,545.6
2023-01-10T13:34:19.356Z,545.7
2023-01-10T13:35:22.007Z,545.8
2023-01-10T13:36:24.543Z,545.8
2023-01-10T13:37:26.743Z,545.8
2023-01-10T13:38:29.330Z,546
2023-01-10T13:39:31.566Z,545.4
2023-01-10T13:40:33.809Z,545.9
2023-01-10T13:41:36.336Z,546
2023-01-10T13:42:38.588Z,545.6
2023-01-10T13:43:40.873Z,545.6